Flight Track Log - Related Links

Times and Time Zones

All times are in EDT time to prevent confusion due to time zone crossing. See the JZA7930 flight status page for this flight to view local times or setup timezone preferences in your user account.

Time Position Orientation Groundspeed Altitude Reporting Facility
EDT Latitude Longitude Course Direction KTS MPH feet Rate Location/Type
Fri 01:43:11 PM 43.6500 -79.6167 55° Northeast 20 23 500  Level Toronto Center
Fri 01:47:11 PM 43.6667 -79.5833 55° Northeast 60 69 900 380 Climbing Toronto Center
Fri 01:48:11 PM 43.6667 -79.5333 99° East 110 127 2,400 1,350 Climbing Toronto Center
Fri 01:49:11 PM 43.6667 -79.5000 90° East 120 138 3,600 1,250 Climbing Toronto Center
Fri 01:50:11 PM 43.6333 -79.4667 144° Southeast 130 150 4,900 700 Climbing Toronto Center
Fri 01:51:11 PM 43.5833 -79.4500 166° South 150 173 5,000 300 Climbing Toronto Center
Fri 01:52:11 PM 43.5333 -79.4500 180° South 190 219 5,500 750 Climbing Toronto Center
Fri 01:53:11 PM 43.4833 -79.4500 180° South 180 207 6,500 950 Climbing Toronto Center
Fri 01:54:11 PM 43.4500 -79.5000 227° Southwest 180 207 7,400 750 Climbing Toronto Center
Fri 01:55:11 PM 43.4167 -79.5333 216° Southwest 170 196 8,000 1,000 Climbing Toronto Center
Fri 01:56:11 PM 43.3833 -79.5833 227° Southwest 180 207 9,400 1,200 Climbing Toronto Center
Fri 01:57:11 PM 43.3500 -79.6333 227° Southwest 140 161 10,400 1,000 Climbing Toronto Center
Fri 01:58:11 PM 43.3167 -79.6500 200° South 160 184 11,400 1,050 Climbing Toronto Center
Fri 01:59:11 PM 43.2833 -79.6833 216° Southwest 160 184 12,500 1,100 Climbing Toronto Center
Fri 02:00:11 PM 43.2333 -79.7000 194° South 150 173 13,600 900 Climbing Toronto Center
Fri 02:01:11 PM 43.2000 -79.6833 160° South 160 184 14,300 700 Climbing Toronto Center
Fri 02:02:11 PM 43.1500 -79.6500 154° Southeast 160 184 15,000 750 Climbing Toronto Center
Fri 02:03:11 PM 43.1000 -79.6333 166° South 170 196 15,800 700 Climbing Toronto Center
Fri 02:04:11 PM 43.0500 -79.6333 180° South 170 196 16,400 600 Climbing Toronto Center
Fri 02:05:11 PM 43.0000 -79.6167 166° South 180 207 17,000 550 Climbing Toronto Center
Fri 02:06:11 PM 42.9667 -79.5833 144° Southeast 180 207 17,500 700 Climbing Toronto Center
Fri 02:07:11 PM 42.9167 -79.5500 154° Southeast 190 219 18,400 700 Climbing Toronto Center
Fri 02:08:11 PM 42.8667 -79.5000 144° Southeast 190 219 18,900 600 Climbing Toronto Center
Fri 02:09:11 PM 42.8333 -79.4667 144° Southeast 190 219 19,600 600 Climbing Toronto Center
Fri 02:10:11 PM 42.7833 -79.4333 154° Southeast 190 219 20,100 600 Climbing Toronto Center
Fri 02:11:11 PM 42.7333 -79.3833 144° Southeast 180 207 20,800 650 Climbing Toronto Center
Fri 02:12:11 PM 42.7000 -79.3667 160° South 180 207 21,400 500 Climbing Toronto Center
Fri 02:13:11 PM 42.6500 -79.3167 144° Southeast 180 207 21,800 300 Climbing Toronto Center
Fri 02:14:11 PM 42.6000 -79.3000 166° South 180 207 22,000 300 Climbing Toronto Center
Fri 02:15:11 PM 42.5667 -79.2500 132° Southeast 200 230 22,400 500 Climbing Toronto Center
Fri 02:16:11 PM 42.5167 -79.2000 144° Southeast 190 219 23,000 300 Climbing Toronto Center
Fri 02:17:11 PM 42.4667 -79.1833 166° South 190 219 23,000  Level Toronto Center
Fri 02:17:42 PM 42.4536 -79.1817 175° South 203 234 23,000  Level Cleveland Center
Fri 02:18:44 PM 42.4028 -79.1419 150° Southeast 211 243 23,000  Level Cleveland Center
Fri 02:19:46 PM 42.3506 -79.0992 149° Southeast 217 250 23,000  Level Cleveland Center
Fri 02:20:48 PM 42.2856 -79.0489 150° Southeast 223 257 23,000  Level Cleveland Center
Fri 02:21:50 PM 42.2314 -79.0050 149° Southeast 225 259 23,000  Level Cleveland Center
Fri 02:22:53 PM 42.1767 -78.9614 149° Southeast 230 265 23,000  Level Cleveland Center
Fri 02:23:55 PM 42.1225 -78.9183 149° Southeast 229 264 23,000  Level Cleveland Center
Fri 02:24:57 PM 42.0681 -78.8781 151° Southeast 227 261 23,000  Level Cleveland Center
Fri 02:25:59 PM 42.0022 -78.8278 150° Southeast 227 261 23,000  Level Cleveland Center
Fri 02:27:01 PM 41.9469 -78.7847 150° Southeast 228 262 23,000  Level Cleveland Center
Fri 02:28:03 PM 41.8922 -78.7397 149° Southeast 228 262 23,000  Level Cleveland Center
Fri 02:29:05 PM 41.8378 -78.6981 150° Southeast 228 262 23,000  Level Cleveland Center
Fri 02:30:07 PM 41.7831 -78.6553 150° Southeast 228 262 23,000  Level Cleveland Center
Fri 02:31:09 PM 41.7169 -78.6033 150° Southeast 229 264 23,000  Level Cleveland Center
Fri 02:32:12 PM 41.6617 -78.5614 150° Southeast 229 264 23,000  Level Cleveland Center
Fri 02:33:14 PM 41.6064 -78.5186 150° Southeast 229 264 23,000  Level Cleveland Center
Fri 02:34:16 PM 41.5517 -78.4769 150° Southeast 229 264 23,000  Level Cleveland Center
Fri 02:35:18 PM 41.4953 -78.4339 150° Southeast 230 265 23,000  Level Cleveland Center
Fri 02:36:20 PM 41.4397 -78.3897 149° Southeast 232 267 23,000  Level Cleveland Center
Fri 02:37:22 PM 41.3728 -78.3392 150° Southeast 231 266 23,000  Level Cleveland Center
Fri 02:38:24 PM 41.3219 -78.3003 150° Southeast 231 266 23,000  Level Cleveland Center
Fri 02:39:26 PM 41.2661 -78.2581 150° Southeast 231 266 23,000  Level Cleveland Center
Fri 02:40:29 PM 41.2053 -78.2128 151° Southeast 231 266 23,000  Level Cleveland Center
Fri 02:41:31 PM 41.1500 -78.1692 149° Southeast 231 266 23,000  Level Cleveland Center
Fri 02:42:33 PM 41.0933 -78.1269 151° Southeast 231 266 23,000  Level Cleveland Center
Fri 02:43:35 PM 41.0250 -78.0756 150° Southeast 232 267 23,000  Level Cleveland Center
Fri 02:44:37 PM 40.9692 -78.0319 149° Southeast 232 267 23,000 -339 Level Cleveland Center
Fri 02:45:39 PM 40.9125 -77.9869 149° Southeast 233 268 22,300 -968 Descending Cleveland Center
Fri 02:46:41 PM 40.8492 -77.9383 150° Southeast 253 291 21,000 -1,306 Descending Cleveland Center
Fri 02:47:43 PM 40.7803 -77.8842 149° Southeast 283 326 19,600 -1,584 Descending Cleveland Center
Fri 02:48:46 PM 40.6983 -77.8192 149° Southeast 287 330 17,700 -1,248 Descending Cleveland Center
Fri 02:49:48 PM 40.6308 -77.7656 149° Southeast 285 328 17,000 -339 Descending Cleveland Center
Fri 02:50:50 PM 40.5672 -77.7164 150° Southeast 272 313 17,000  Level Cleveland Center
Fri 02:51:52 PM 40.5058 -77.6678 149° Southeast 264 304 17,000 -532 Level Cleveland Center
Fri 02:52:54 PM 40.4419 -77.6194 150° Southeast 264 304 15,900 -1,425 Descending Cleveland Center
Fri 02:54:53 PM 40.2981 -77.5150 151° Southeast 276 318 12,700 -1,508 Descending New York Center
Fri 02:55:53 PM 40.2425 -77.4689 148° Southeast 271 312 11,400 -1,345 Descending New York Center
Fri 02:57:38 PM 40.1333 -77.3833 149° Southeast 253 291 9,000 -873 Descending Potomac TRACON
Fri 02:58:38 PM 40.0667 -77.3333 150° Southeast 243 280 9,000  Level Potomac TRACON
Fri 02:59:38 PM 40.0167 -77.2833 143° Southeast 239 275 9,000  Level Potomac TRACON
Fri 03:00:39 PM 39.9500 -77.2500 159° South 236 272 9,000  Level Potomac TRACON
Fri 03:01:33 PM 39.9000 -77.2167 153° Southeast 236 272 9,000 -158 Level Potomac TRACON
Fri 03:02:33 PM 39.8500 -77.1667 142° Southeast 234 269 8,700 -744 Descending Potomac TRACON
Fri 03:03:34 PM 39.7833 -77.1167 150° Southeast 257 296 7,500 -887 Descending Potomac TRACON
Fri 03:04:28 PM 39.7333 -77.0833 153° Southeast 250 288 7,000 -261 Descending Potomac TRACON
Fri 03:05:29 PM 39.6833 -77.0333 142° Southeast 222 255 7,000 -545 Level Potomac TRACON
Fri 03:06:29 PM 39.6167 -77.0000 159° South 237 273 5,900 -1,000 Descending Potomac TRACON
Fri 03:07:29 PM 39.5667 -76.9500 142° Southeast 232 267 5,000 -900 Descending Potomac TRACON
Fri 03:08:29 PM 39.5167 -76.9167 153° Southeast 222 255 4,100 -939 Descending Potomac TRACON
Fri 03:09:24 PM 39.4667 -76.8833 153° Southeast 225 259 3,200 -574 Descending Potomac TRACON
Fri 03:10:24 PM 39.4167 -76.8500 153° Southeast 208 239 3,000 -100 Descending Potomac TRACON
Fri 03:11:24 PM 39.3667 -76.8000 142° Southeast 207 238 3,000 -240 Level Potomac TRACON
Fri 03:12:29 PM 39.3000 -76.7667 159° South 205 236 2,500 -500 Descending Potomac TRACON
Fri 03:13:24 PM 39.2667 -76.7333 142° Southeast 175 201 2,000 -626 Descending Potomac TRACON
Fri 03:14:24 PM 39.2333 -76.7000 142° Southeast 133 153 1,300 -700 Descending Potomac TRACON
Fri 03:15:24 PM 39.2000 -76.6833 159° South 113 130 600 -700 Descending Potomac TRACON

Login

Don't have an account? Register now (free) for customized features, flight alerts, and more!